sensor_id;sensor_type;location;lat;lon;timestamp;P1;durP1;ratioP1;P2;durP2;ratioP2
42702;SDS011;28341;52.064;4.920;2023-09-07T00:01:05;10.88;;;9.65;;
42702;SDS011;28341;52.064;4.920;2023-09-07T00:03:11;10.55;;;9.32;;
42702;SDS011;28341;52.064;4.920;2023-09-07T00:05:16;10.43;;;9.32;;
42702;SDS011;28341;52.064;4.920;2023-09-07T00:07:22;11.50;;;9.15;;
42702;SDS011;28341;52.064;4.920;2023-09-07T00:09:26;12.52;;;9.40;;
42702;SDS011;28341;52.064;4.920;2023-09-07T00:11:30;9.90;;;8.90;;
42702;SDS011;28341;52.064;4.920;2023-09-07T00:13:33;10.70;;;9.70;;
42702;SDS011;28341;52.064;4.920;2023-09-07T00:15:37;10.98;;;9.15;;
42702;SDS011;28341;52.064;4.920;2023-09-07T00:17:41;10.07;;;9.07;;
42702;SDS011;28341;52.064;4.920;2023-09-07T00:19:45;10.77;;;8.95;;
42702;SDS011;28341;52.064;4.920;2023-09-07T00:21:49;9.85;;;8.85;;
42702;SDS011;28341;52.064;4.920;2023-09-07T00:23:56;11.23;;;9.13;;
42702;SDS011;28341;52.064;4.920;2023-09-07T00:26:04;9.90;;;8.90;;
42702;SDS011;28341;52.064;4.920;2023-09-07T00:28:08;9.65;;;8.70;;
42702;SDS011;28341;52.064;4.920;2023-09-07T00:30:12;9.13;;;8.20;;
42702;SDS011;28341;52.064;4.920;2023-09-07T00:32:15;9.45;;;8.35;;
42702;SDS011;28341;52.064;4.920;2023-09-07T00:34:19;9.80;;;8.80;;
42702;SDS011;28341;52.064;4.920;2023-09-07T00:36:23;9.48;;;8.57;;
42702;SDS011;28341;52.064;4.920;2023-09-07T00:38:27;9.63;;;8.35;;
42702;SDS011;28341;52.064;4.920;2023-09-07T00:40:34;10.98;;;8.77;;
42702;SDS011;28341;52.064;4.920;2023-09-07T00:42:38;9.48;;;8.32;;
42702;SDS011;28341;52.064;4.920;2023-09-07T00:44:42;9.85;;;7.90;;
42702;SDS011;28341;52.064;4.920;2023-09-07T00:46:45;9.10;;;8.00;;
42702;SDS011;28341;52.064;4.920;2023-09-07T00:48:52;9.07;;;8.07;;
42702;SDS011;28341;52.064;4.920;2023-09-07T00:50:56;8.68;;;7.60;;
42702;SDS011;28341;52.064;4.920;2023-09-07T00:53:00;9.00;;;8.00;;
42702;SDS011;28341;52.064;4.920;2023-09-07T00:55:06;10.93;;;7.35;;
42702;SDS011;28341;52.064;4.920;2023-09-07T00:57:14;8.30;;;7.50;;
42702;SDS011;28341;52.064;4.920;2023-09-07T00:59:18;8.30;;;7.20;;
42702;SDS011;28341;52.064;4.920;2023-09-07T01:01:19;10.48;;;7.85;;
42702;SDS011;28341;52.064;4.920;2023-09-07T01:03:23;9.30;;;8.13;;
42702;SDS011;28341;52.064;4.920;2023-09-07T01:05:29;8.48;;;7.65;;
42702;SDS011;28341;52.064;4.920;2023-09-07T01:07:37;10.02;;;8.77;;
42702;SDS011;28341;52.064;4.920;2023-09-07T01:09:46;8.82;;;7.68;;
42702;SDS011;28341;52.064;4.920;2023-09-07T01:11:52;8.40;;;7.60;;
42702;SDS011;28341;52.064;4.920;2023-09-07T01:13:56;10.30;;;9.30;;
42702;SDS011;28341;52.064;4.920;2023-09-07T01:15:59;12.25;;;9.20;;
42702;SDS011;28341;52.064;4.920;2023-09-07T01:18:01;10.50;;;9.43;;
42702;SDS011;28341;52.064;4.920;2023-09-07T01:20:06;9.57;;;8.60;;
42702;SDS011;28341;52.064;4.920;2023-09-07T01:22:14;9.30;;;8.05;;
42702;SDS011;28341;52.064;4.920;2023-09-07T01:24:18;9.95;;;8.95;;
42702;SDS011;28341;52.064;4.920;2023-09-07T01:26:23;10.77;;;9.65;;
42702;SDS011;28341;52.064;4.920;2023-09-07T01:28:27;11.18;;;9.13;;
42702;SDS011;28341;52.064;4.920;2023-09-07T01:30:31;10.88;;;9.05;;
42702;SDS011;28341;52.064;4.920;2023-09-07T01:32:37;9.80;;;8.90;;
42702;SDS011;28341;52.064;4.920;2023-09-07T01:34:41;10.02;;;8.52;;
42702;SDS011;28341;52.064;4.920;2023-09-07T01:36:45;10.88;;;9.75;;
42702;SDS011;28341;52.064;4.920;2023-09-07T01:38:51;10.18;;;9.18;;
42702;SDS011;28341;52.064;4.920;2023-09-07T01:40:55;9.60;;;8.70;;
42702;SDS011;28341;52.064;4.920;2023-09-07T01:42:58;10.93;;;9.35;;
42702;SDS011;28341;52.064;4.920;2023-09-07T01:45:02;10.88;;;9.63;;
42702;SDS011;28341;52.064;4.920;2023-09-07T01:47:07;11.30;;;9.63;;
42702;SDS011;28341;52.064;4.920;2023-09-07T01:49:09;10.80;;;9.48;;
42702;SDS011;28341;52.064;4.920;2023-09-07T01:51:12;13.27;;;10.30;;
42702;SDS011;28341;52.064;4.920;2023-09-07T01:53:17;9.80;;;8.80;;
42702;SDS011;28341;52.064;4.920;2023-09-07T01:55:25;10.93;;;9.82;;
42702;SDS011;28341;52.064;4.920;2023-09-07T01:57:31;10.98;;;9.18;;
42702;SDS011;28341;52.064;4.920;2023-09-07T01:59:35;10.48;;;9.48;;
42702;SDS011;28341;52.064;4.920;2023-09-07T02:01:39;11.05;;;9.98;;
42702;SDS011;28341;52.064;4.920;2023-09-07T02:03:43;10.90;;;9.05;;
42702;SDS011;28341;52.064;4.920;2023-09-07T02:05:47;10.32;;;9.23;;
42702;SDS011;28341;52.064;4.920;2023-09-07T02:07:51;10.73;;;9.23;;
42702;SDS011;28341;52.064;4.920;2023-09-07T02:09:55;10.95;;;9.85;;
42702;SDS011;28341;52.064;4.920;2023-09-07T02:12:01;11.95;;;9.98;;
42702;SDS011;28341;52.064;4.920;2023-09-07T02:14:06;15.32;;;10.10;;
42702;SDS011;28341;52.064;4.920;2023-09-07T02:16:09;12.55;;;9.85;;
42702;SDS011;28341;52.064;4.920;2023-09-07T02:18:13;12.32;;;9.68;;
42702;SDS011;28341;52.064;4.920;2023-09-07T02:20:17;11.95;;;10.20;;
42702;SDS011;28341;52.064;4.920;2023-09-07T02:22:21;12.85;;;11.45;;
42702;SDS011;28341;52.064;4.920;2023-09-07T02:24:25;13.15;;;10.75;;
42702;SDS011;28341;52.064;4.920;2023-09-07T02:26:29;11.80;;;10.60;;
42702;SDS011;28341;52.064;4.920;2023-09-07T02:28:37;14.75;;;10.68;;
42702;SDS011;28341;52.064;4.920;2023-09-07T02:30:41;13.27;;;10.20;;
42702;SDS011;28341;52.064;4.920;2023-09-07T02:32:45;13.75;;;11.38;;
42702;SDS011;28341;52.064;4.920;2023-09-07T02:34:49;12.40;;;11.10;;
42702;SDS011;28341;52.064;4.920;2023-09-07T02:36:53;12.27;;;11.07;;
42702;SDS011;28341;52.064;4.920;2023-09-07T02:38:57;12.38;;;10.48;;
42702;SDS011;28341;52.064;4.920;2023-09-07T02:41:01;14.20;;;11.00;;
42702;SDS011;28341;52.064;4.920;2023-09-07T02:43:06;13.20;;;11.80;;
42702;SDS011;28341;52.064;4.920;2023-09-07T02:45:14;12.88;;;11.38;;
42702;SDS011;28341;52.064;4.920;2023-09-07T02:47:18;12.70;;;11.43;;
42702;SDS011;28341;52.064;4.920;2023-09-07T02:49:22;13.07;;;11.68;;
42702;SDS011;28341;52.064;4.920;2023-09-07T02:51:26;12.75;;;11.45;;
42702;SDS011;28341;52.064;4.920;2023-09-07T02:53:31;13.57;;;12.13;;
42702;SDS011;28341;52.064;4.920;2023-09-07T02:55:32;14.20;;;11.98;;
42702;SDS011;28341;52.064;4.920;2023-09-07T02:57:36;14.52;;;13.02;;
42702;SDS011;28341;52.064;4.920;2023-09-07T02:59:40;16.10;;;12.77;;
42702;SDS011;28341;52.064;4.920;2023-09-07T03:01:46;15.70;;;12.85;;
42702;SDS011;28341;52.064;4.920;2023-09-07T03:03:51;13.57;;;12.27;;
42702;SDS011;28341;52.064;4.920;2023-09-07T03:05:53;14.17;;;12.77;;
42702;SDS011;28341;52.064;4.920;2023-09-07T03:07:57;14.07;;;12.55;;
42702;SDS011;28341;52.064;4.920;2023-09-07T03:10:01;13.77;;;12.38;;
42702;SDS011;28341;52.064;4.920;2023-09-07T03:12:03;14.17;;;12.67;;
42702;SDS011;28341;52.064;4.920;2023-09-07T03:14:08;14.20;;;12.80;;
42702;SDS011;28341;52.064;4.920;2023-09-07T03:16:12;14.73;;;13.07;;
42702;SDS011;28341;52.064;4.920;2023-09-07T03:18:19;14.38;;;13.07;;
42702;SDS011;28341;52.064;4.920;2023-09-07T03:20:20;14.77;;;13.38;;
42702;SDS011;28341;52.064;4.920;2023-09-07T03:22:25;16.25;;;13.90;;
42702;SDS011;28341;52.064;4.920;2023-09-07T03:24:29;14.90;;;13.32;;
42702;SDS011;28341;52.064;4.920;2023-09-07T03:26:33;14.68;;;13.00;;
42702;SDS011;28341;52.064;4.920;2023-09-07T03:28:38;15.80;;;14.20;;
42702;SDS011;28341;52.064;4.920;2023-09-07T03:30:42;20.27;;;14.27;;
42702;SDS011;28341;52.064;4.920;2023-09-07T03:32:46;15.25;;;13.75;;
42702;SDS011;28341;52.064;4.920;2023-09-07T03:34:52;16.33;;;14.20;;
42702;SDS011;28341;52.064;4.920;2023-09-07T03:36:56;15.23;;;13.73;;
42702;SDS011;28341;52.064;4.920;2023-09-07T03:39:00;15.68;;;13.10;;
42702;SDS011;28341;52.064;4.920;2023-09-07T03:41:04;15.57;;;13.98;;
42702;SDS011;28341;52.064;4.920;2023-09-07T03:43:08;19.27;;;14.27;;
42702;SDS011;28341;52.064;4.920;2023-09-07T03:45:09;16.23;;;14.52;;
42702;SDS011;28341;52.064;4.920;2023-09-07T03:47:13;15.88;;;14.27;;
42702;SDS011;28341;52.064;4.920;2023-09-07T03:49:18;17.60;;;14.35;;
42702;SDS011;28341;52.064;4.920;2023-09-07T03:51:25;16.40;;;14.70;;
42702;SDS011;28341;52.064;4.920;2023-09-07T03:53:29;16.35;;;14.38;;
42702;SDS011;28341;52.064;4.920;2023-09-07T03:55:39;16.50;;;14.13;;
42702;SDS011;28341;52.064;4.920;2023-09-07T03:57:45;15.45;;;13.88;;
42702;SDS011;28341;52.064;4.920;2023-09-07T03:59:48;17.55;;;14.77;;
42702;SDS011;28341;52.064;4.920;2023-09-07T04:01:52;16.33;;;14.68;;
42702;SDS011;28341;52.064;4.920;2023-09-07T04:03:56;17.40;;;14.77;;
42702;SDS011;28341;52.064;4.920;2023-09-07T04:06:00;16.58;;;14.88;;
42702;SDS011;28341;52.064;4.920;2023-09-07T04:08:07;17.73;;;15.60;;
42702;SDS011;28341;52.064;4.920;2023-09-07T04:10:11;17.00;;;15.23;;
42702;SDS011;28341;52.064;4.920;2023-09-07T04:12:15;15.93;;;14.25;;
42702;SDS011;28341;52.064;4.920;2023-09-07T04:14:18;19.73;;;15.05;;
42702;SDS011;28341;52.064;4.920;2023-09-07T04:16:22;16.85;;;15.10;;
42702;SDS011;28341;52.064;4.920;2023-09-07T04:18:26;16.17;;;14.43;;
42702;SDS011;28341;52.064;4.920;2023-09-07T04:20:30;17.48;;;15.70;;
42702;SDS011;28341;52.064;4.920;2023-09-07T04:22:35;15.73;;;14.07;;
42702;SDS011;28341;52.064;4.920;2023-09-07T04:24:41;17.73;;;15.60;;
42702;SDS011;28341;52.064;4.920;2023-09-07T04:26:45;16.55;;;14.82;;
42702;SDS011;28341;52.064;4.920;2023-09-07T04:28:51;18.88;;;15.00;;
42702;SDS011;28341;52.064;4.920;2023-09-07T04:30:55;17.15;;;15.45;;
42702;SDS011;28341;52.064;4.920;2023-09-07T04:32:59;17.40;;;15.60;;
42702;SDS011;28341;52.064;4.920;2023-09-07T04:35:01;17.52;;;15.65;;
42702;SDS011;28341;52.064;4.920;2023-09-07T04:37:05;17.95;;;16.05;;
42702;SDS011;28341;52.064;4.920;2023-09-07T04:39:10;18.02;;;16.05;;
42702;SDS011;28341;52.064;4.920;2023-09-07T04:41:17;20.30;;;15.25;;
42702;SDS011;28341;52.064;4.920;2023-09-07T04:43:20;17.05;;;15.10;;
42702;SDS011;28341;52.064;4.920;2023-09-07T04:45:24;16.50;;;14.90;;
42702;SDS011;28341;52.064;4.920;2023-09-07T04:47:28;17.42;;;15.63;;
42702;SDS011;28341;52.064;4.920;2023-09-07T04:49:32;19.05;;;14.82;;
42702;SDS011;28341;52.064;4.920;2023-09-07T04:51:37;16.40;;;14.48;;
42702;SDS011;28341;52.064;4.920;2023-09-07T04:53:40;17.50;;;14.48;;
42702;SDS011;28341;52.064;4.920;2023-09-07T04:55:42;17.08;;;15.20;;
42702;SDS011;28341;52.064;4.920;2023-09-07T04:57:49;16.25;;;14.52;;
42702;SDS011;28341;52.064;4.920;2023-09-07T04:59:53;15.63;;;14.02;;
42702;SDS011;28341;52.064;4.920;2023-09-07T05:01:58;16.25;;;14.60;;
42702;SDS011;28341;52.064;4.920;2023-09-07T05:04:04;15.95;;;14.35;;
42702;SDS011;28341;52.064;4.920;2023-09-07T05:06:08;17.50;;;15.02;;
42702;SDS011;28341;52.064;4.920;2023-09-07T05:08:12;16.48;;;14.77;;
42702;SDS011;28341;52.064;4.920;2023-09-07T05:10:13;20.90;;;16.58;;
42702;SDS011;28341;52.064;4.920;2023-09-07T05:12:17;19.83;;;17.08;;
42702;SDS011;28341;52.064;4.920;2023-09-07T05:14:25;17.52;;;15.73;;
42702;SDS011;28341;52.064;4.920;2023-09-07T05:16:29;17.88;;;15.93;;
42702;SDS011;28341;52.064;4.920;2023-09-07T05:18:33;17.15;;;14.90;;
42702;SDS011;28341;52.064;4.920;2023-09-07T05:20:38;17.80;;;15.98;;
42702;SDS011;28341;52.064;4.920;2023-09-07T05:22:41;16.67;;;14.98;;
42702;SDS011;28341;52.064;4.920;2023-09-07T05:24:46;17.10;;;15.40;;
42702;SDS011;28341;52.064;4.920;2023-09-07T05:26:50;16.83;;;15.02;;
42702;SDS011;28341;52.064;4.920;2023-09-07T05:28:54;20.00;;;16.80;;
42702;SDS011;28341;52.064;4.920;2023-09-07T05:31:00;18.75;;;16.85;;
42702;SDS011;28341;52.064;4.920;2023-09-07T05:33:05;20.65;;;16.58;;
42702;SDS011;28341;52.064;4.920;2023-09-07T05:35:06;19.20;;;17.15;;
42702;SDS011;28341;52.064;4.920;2023-09-07T05:37:12;18.60;;;15.77;;
42702;SDS011;28341;52.064;4.920;2023-09-07T05:39:16;18.15;;;16.05;;
42702;SDS011;28341;52.064;4.920;2023-09-07T05:41:21;17.73;;;15.73;;
42702;SDS011;28341;52.064;4.920;2023-09-07T05:43:25;18.60;;;15.75;;
42702;SDS011;28341;52.064;4.920;2023-09-07T05:45:29;18.77;;;15.77;;
42702;SDS011;28341;52.064;4.920;2023-09-07T05:47:36;18.05;;;16.13;;
42702;SDS011;28341;52.064;4.920;2023-09-07T05:49:40;18.10;;;16.20;;
42702;SDS011;28341;52.064;4.920;2023-09-07T05:51:44;17.15;;;15.32;;
42702;SDS011;28341;52.064;4.920;2023-09-07T05:53:47;20.02;;;15.60;;
42702;SDS011;28341;52.064;4.920;2023-09-07T05:55:49;18.05;;;16.15;;
42702;SDS011;28341;52.064;4.920;2023-09-07T05:57:54;21.67;;;16.52;;
42702;SDS011;28341;52.064;4.920;2023-09-07T05:59:59;17.60;;;15.80;;
42702;SDS011;28341;52.064;4.920;2023-09-07T06:02:13;17.38;;;15.32;;
42702;SDS011;28341;52.064;4.920;2023-09-07T06:04:20;19.85;;;16.73;;
42702;SDS011;28341;52.064;4.920;2023-09-07T06:06:24;19.40;;;17.38;;
42702;SDS011;28341;52.064;4.920;2023-09-07T06:08:28;18.58;;;16.65;;
42702;SDS011;28341;52.064;4.920;2023-09-07T06:10:29;17.52;;;15.65;;
42702;SDS011;28341;52.064;4.920;2023-09-07T06:12:34;18.95;;;16.92;;
42702;SDS011;28341;52.064;4.920;2023-09-07T06:14:38;18.63;;;15.48;;
42702;SDS011;28341;52.064;4.920;2023-09-07T06:16:41;20.13;;;17.10;;
42702;SDS011;28341;52.064;4.920;2023-09-07T06:18:46;19.75;;;17.08;;
42702;SDS011;28341;52.064;4.920;2023-09-07T06:20:52;19.63;;;16.08;;
42702;SDS011;28341;52.064;4.920;2023-09-07T06:22:56;19.52;;;16.63;;
42702;SDS011;28341;52.064;4.920;2023-09-07T06:25:00;19.58;;;17.45;;
42702;SDS011;28341;52.064;4.920;2023-09-07T06:27:02;19.10;;;17.10;;
42702;SDS011;28341;52.064;4.920;2023-09-07T06:29:07;20.08;;;18.00;;
42702;SDS011;28341;52.064;4.920;2023-09-07T06:31:11;20.38;;;18.23;;
42702;SDS011;28341;52.064;4.920;2023-09-07T06:33:15;20.80;;;18.02;;
42702;SDS011;28341;52.064;4.920;2023-09-07T06:35:18;21.15;;;18.85;;
42702;SDS011;28341;52.064;4.920;2023-09-07T06:37:25;21.60;;;18.98;;
42702;SDS011;28341;52.064;4.920;2023-09-07T06:39:30;25.33;;;20.65;;
42702;SDS011;28341;52.064;4.920;2023-09-07T06:41:31;22.58;;;18.92;;
42702;SDS011;28341;52.064;4.920;2023-09-07T06:43:36;20.65;;;18.27;;
42702;SDS011;28341;52.064;4.920;2023-09-07T06:45:41;22.00;;;19.52;;
42702;SDS011;28341;52.064;4.920;2023-09-07T06:47:45;20.17;;;18.08;;
42702;SDS011;28341;52.064;4.920;2023-09-07T06:49:49;23.88;;;20.02;;
42702;SDS011;28341;52.064;4.920;2023-09-07T06:51:54;25.65;;;18.92;;
42702;SDS011;28341;52.064;4.920;2023-09-07T06:54:00;23.30;;;18.10;;
42702;SDS011;28341;52.064;4.920;2023-09-07T06:56:04;26.13;;;19.92;;
42702;SDS011;28341;52.064;4.920;2023-09-07T06:58:07;23.38;;;19.65;;
42702;SDS011;28341;52.064;4.920;2023-09-07T07:00:11;20.80;;;18.35;;
42702;SDS011;28341;52.064;4.920;2023-09-07T07:02:16;23.25;;;19.08;;
42702;SDS011;28341;52.064;4.920;2023-09-07T07:04:20;23.92;;;19.17;;
42702;SDS011;28341;52.064;4.920;2023-09-07T07:06:24;22.33;;;20.00;;
42702;SDS011;28341;52.064;4.920;2023-09-07T07:08:28;23.30;;;19.17;;
42702;SDS011;28341;52.064;4.920;2023-09-07T07:10:34;20.17;;;17.75;;
42702;SDS011;28341;52.064;4.920;2023-09-07T07:12:38;18.80;;;16.80;;
42702;SDS011;28341;52.064;4.920;2023-09-07T07:14:42;34.38;;;18.88;;
42702;SDS011;28341;52.064;4.920;2023-09-07T07:16:44;23.05;;;17.73;;
42702;SDS011;28341;52.064;4.920;2023-09-07T07:18:48;19.45;;;16.35;;
42702;SDS011;28341;52.064;4.920;2023-09-07T07:20:51;20.65;;;16.98;;
42702;SDS011;28341;52.064;4.920;2023-09-07T07:22:55;19.90;;;17.75;;
42702;SDS011;28341;52.064;4.920;2023-09-07T07:24:59;19.27;;;16.90;;
42702;SDS011;28341;52.064;4.920;2023-09-07T07:27:08;16.15;;;14.32;;
42702;SDS011;28341;52.064;4.920;2023-09-07T07:29:13;17.05;;;15.25;;
42702;SDS011;28341;52.064;4.920;2023-09-07T07:31:17;18.70;;;15.32;;
42702;SDS011;28341;52.064;4.920;2023-09-07T07:33:21;18.13;;;16.20;;
42702;SDS011;28341;52.064;4.920;2023-09-07T07:35:26;17.35;;;15.45;;
42702;SDS011;28341;52.064;4.920;2023-09-07T07:37:31;25.42;;;14.15;;
42702;SDS011;28341;52.064;4.920;2023-09-07T07:39:38;17.50;;;13.15;;
42702;SDS011;28341;52.064;4.920;2023-09-07T07:41:42;16.17;;;13.27;;
42702;SDS011;28341;52.064;4.920;2023-09-07T07:43:48;14.82;;;11.70;;
42702;SDS011;28341;52.064;4.920;2023-09-07T07:45:53;12.98;;;11.25;;
42702;SDS011;28341;52.064;4.920;2023-09-07T07:47:57;13.77;;;9.85;;
42702;SDS011;28341;52.064;4.920;2023-09-07T07:50:03;11.82;;;10.02;;
42702;SDS011;28341;52.064;4.920;2023-09-07T07:52:08;11.73;;;9.20;;
42702;SDS011;28341;52.064;4.920;2023-09-07T07:54:12;15.20;;;9.27;;
42702;SDS011;28341;52.064;4.920;2023-09-07T07:56:14;12.75;;;8.10;;
42702;SDS011;28341;52.064;4.920;2023-09-07T07:58:21;12.88;;;8.70;;
42702;SDS011;28341;52.064;4.920;2023-09-07T08:00:28;11.13;;;8.07;;
42702;SDS011;28341;52.064;4.920;2023-09-07T08:02:34;11.63;;;8.10;;
42702;SDS011;28341;52.064;4.920;2023-09-07T08:04:38;9.48;;;7.90;;
42702;SDS011;28341;52.064;4.920;2023-09-07T08:06:42;9.45;;;7.38;;
42702;SDS011;28341;52.064;4.920;2023-09-07T08:08:46;10.27;;;7.65;;
42702;SDS011;28341;52.064;4.920;2023-09-07T08:10:51;11.30;;;7.75;;
42702;SDS011;28341;52.064;4.920;2023-09-07T08:12:55;10.52;;;7.40;;
42702;SDS011;28341;52.064;4.920;2023-09-07T08:14:59;11.02;;;7.57;;
42702;SDS011;28341;52.064;4.920;2023-09-07T08:17:06;10.73;;;7.35;;
42702;SDS011;28341;52.064;4.920;2023-09-07T08:19:10;12.75;;;7.32;;
42702;SDS011;28341;52.064;4.920;2023-09-07T08:21:15;15.27;;;7.63;;
42702;SDS011;28341;52.064;4.920;2023-09-07T08:23:19;12.73;;;7.00;;
42702;SDS011;28341;52.064;4.920;2023-09-07T08:25:21;8.90;;;6.78;;
42702;SDS011;28341;52.064;4.920;2023-09-07T08:27:26;10.35;;;6.80;;
42702;SDS011;28341;52.064;4.920;2023-09-07T08:29:30;9.50;;;6.68;;
42702;SDS011;28341;52.064;4.920;2023-09-07T08:31:34;9.10;;;6.72;;
42702;SDS011;28341;52.064;4.920;2023-09-07T08:33:41;9.45;;;6.65;;
42702;SDS011;28341;52.064;4.920;2023-09-07T08:35:45;10.98;;;6.70;;
42702;SDS011;28341;52.064;4.920;2023-09-07T08:37:49;11.30;;;6.38;;
42702;SDS011;28341;52.064;4.920;2023-09-07T08:39:53;9.32;;;6.07;;
42702;SDS011;28341;52.064;4.920;2023-09-07T08:41:58;9.32;;;6.32;;
42702;SDS011;28341;52.064;4.920;2023-09-07T08:44:01;7.75;;;5.30;;
42702;SDS011;28341;52.064;4.920;2023-09-07T08:46:11;7.75;;;5.90;;
42702;SDS011;28341;52.064;4.920;2023-09-07T08:48:15;8.40;;;5.60;;
42702;SDS011;28341;52.064;4.920;2023-09-07T08:50:23;9.25;;;5.78;;
42702;SDS011;28341;52.064;4.920;2023-09-07T08:52:28;7.38;;;5.82;;
42702;SDS011;28341;52.064;4.920;2023-09-07T08:54:29;11.45;;;6.35;;
42702;SDS011;28341;52.064;4.920;2023-09-07T08:56:33;6.82;;;5.78;;
42702;SDS011;28341;52.064;4.920;2023-09-07T08:58:37;11.63;;;5.47;;
42702;SDS011;28341;52.064;4.920;2023-09-07T09:00:42;8.70;;;5.18;;
42702;SDS011;28341;52.064;4.920;2023-09-07T09:02:46;10.18;;;5.15;;
42702;SDS011;28341;52.064;4.920;2023-09-07T09:04:50;7.82;;;5.20;;
42702;SDS011;28341;52.064;4.920;2023-09-07T09:06:57;9.18;;;5.63;;
42702;SDS011;28341;52.064;4.920;2023-09-07T09:09:04;7.65;;;5.60;;
42702;SDS011;28341;52.064;4.920;2023-09-07T09:11:07;7.68;;;5.57;;
42702;SDS011;28341;52.064;4.920;2023-09-07T09:13:11;9.40;;;5.13;;
42702;SDS011;28341;52.064;4.920;2023-09-07T09:15:15;10.63;;;5.20;;
42702;SDS011;28341;52.064;4.920;2023-09-07T09:17:19;8.60;;;4.95;;
42702;SDS011;28341;52.064;4.920;2023-09-07T09:19:29;6.47;;;4.82;;
42702;SDS011;28341;52.064;4.920;2023-09-07T09:21:34;7.80;;;4.90;;
42702;SDS011;28341;52.064;4.920;2023-09-07T09:23:40;7.75;;;5.45;;
42702;SDS011;28341;52.064;4.920;2023-09-07T09:25:44;7.22;;;4.68;;
42702;SDS011;28341;52.064;4.920;2023-09-07T09:27:48;8.32;;;5.35;;
42702;SDS011;28341;52.064;4.920;2023-09-07T09:29:49;6.30;;;4.40;;
42702;SDS011;28341;52.064;4.920;2023-09-07T09:31:53;5.75;;;4.68;;
42702;SDS011;28341;52.064;4.920;2023-09-07T09:33:54;7.82;;;5.03;;
42702;SDS011;28341;52.064;4.920;2023-09-07T09:35:59;8.27;;;5.25;;
42702;SDS011;28341;52.064;4.920;2023-09-07T09:38:03;7.50;;;4.55;;
42702;SDS011;28341;52.064;4.920;2023-09-07T09:40:07;9.37;;;4.70;;
42702;SDS011;28341;52.064;4.920;2023-09-07T09:42:12;8.07;;;5.05;;
42702;SDS011;28341;52.064;4.920;2023-09-07T09:44:17;7.20;;;4.00;;
42702;SDS011;28341;52.064;4.920;2023-09-07T09:46:20;6.63;;;4.40;;
42702;SDS011;28341;52.064;4.920;2023-09-07T09:48:25;9.95;;;4.75;;
42702;SDS011;28341;52.064;4.920;2023-09-07T09:50:31;8.30;;;4.63;;
42702;SDS011;28341;52.064;4.920;2023-09-07T09:52:37;11.88;;;4.97;;
42702;SDS011;28341;52.064;4.920;2023-09-07T09:54:42;9.00;;;4.60;;
42702;SDS011;28341;52.064;4.920;2023-09-07T09:56:48;6.18;;;4.10;;
42702;SDS011;28341;52.064;4.920;2023-09-07T09:58:52;5.97;;;4.10;;
42702;SDS011;28341;52.064;4.920;2023-09-07T10:00:56;11.13;;;4.45;;
42702;SDS011;28341;52.064;4.920;2023-09-07T10:03:02;5.85;;;4.47;;
42702;SDS011;28341;52.064;4.920;2023-09-07T10:05:11;7.68;;;4.40;;
42702;SDS011;28341;52.064;4.920;2023-09-07T10:07:13;7.95;;;4.30;;
42702;SDS011;28341;52.064;4.920;2023-09-07T10:09:17;5.57;;;4.00;;
42702;SDS011;28341;52.064;4.920;2023-09-07T10:11:25;9.25;;;4.60;;
42702;SDS011;28341;52.064;4.920;2023-09-07T10:13:34;6.25;;;3.88;;
42702;SDS011;28341;52.064;4.920;2023-09-07T10:15:37;6.15;;;3.90;;
42702;SDS011;28341;52.064;4.920;2023-09-07T10:17:41;9.02;;;3.90;;
42702;SDS011;28341;52.064;4.920;2023-09-07T10:19:42;7.03;;;3.95;;
42702;SDS011;28341;52.064;4.920;2023-09-07T10:21:53;6.45;;;3.90;;
42702;SDS011;28341;52.064;4.920;2023-09-07T10:23:58;4.85;;;3.90;;
42702;SDS011;28341;52.064;4.920;2023-09-07T10:26:02;8.73;;;3.75;;
42702;SDS011;28341;52.064;4.920;2023-09-07T10:28:16;7.45;;;3.67;;
42702;SDS011;28341;52.064;4.920;2023-09-07T10:30:27;8.45;;;4.32;;
42702;SDS011;28341;52.064;4.920;2023-09-07T10:32:37;5.22;;;3.38;;
42702;SDS011;28341;52.064;4.920;2023-09-07T10:34:41;4.57;;;3.45;;
42702;SDS011;28341;52.064;4.920;2023-09-07T10:36:45;6.60;;;3.88;;
42702;SDS011;28341;52.064;4.920;2023-09-07T10:38:54;11.57;;;3.30;;
42702;SDS011;28341;52.064;4.920;2023-09-07T10:40:59;4.72;;;3.67;;
42702;SDS011;28341;52.064;4.920;2023-09-07T10:43:04;7.20;;;3.63;;
42702;SDS011;28341;52.064;4.920;2023-09-07T10:45:09;8.02;;;3.60;;
42702;SDS011;28341;52.064;4.920;2023-09-07T10:47:18;5.97;;;3.10;;
42702;SDS011;28341;52.064;4.920;2023-09-07T10:49:23;5.00;;;3.42;;
42702;SDS011;28341;52.064;4.920;2023-09-07T10:51:27;5.53;;;4.00;;
42702;SDS011;28341;52.064;4.920;2023-09-07T10:53:31;8.40;;;3.80;;
42702;SDS011;28341;52.064;4.920;2023-09-07T10:55:36;6.90;;;3.50;;
42702;SDS011;28341;52.064;4.920;2023-09-07T10:57:43;6.00;;;2.97;;
42702;SDS011;28341;52.064;4.920;2023-09-07T10:59:48;5.07;;;3.40;;
42702;SDS011;28341;52.064;4.920;2023-09-07T11:01:55;7.47;;;3.17;;
42702;SDS011;28341;52.064;4.920;2023-09-07T11:04:10;8.52;;;3.50;;
42702;SDS011;28341;52.064;4.920;2023-09-07T11:06:12;5.05;;;3.00;;
42702;SDS011;28341;52.064;4.920;2023-09-07T11:08:19;7.95;;;3.58;;
42702;SDS011;28341;52.064;4.920;2023-09-07T11:10:23;6.75;;;3.50;;
42702;SDS011;28341;52.064;4.920;2023-09-07T11:12:28;6.80;;;3.60;;
42702;SDS011;28341;52.064;4.920;2023-09-07T11:14:32;4.38;;;3.30;;
42702;SDS011;28341;52.064;4.920;2023-09-07T11:16:36;5.18;;;3.63;;
42702;SDS011;28341;52.064;4.920;2023-09-07T11:18:40;6.95;;;3.42;;
42702;SDS011;28341;52.064;4.920;2023-09-07T11:20:46;8.50;;;3.63;;
42702;SDS011;28341;52.064;4.920;2023-09-07T11:22:51;8.90;;;3.33;;
42702;SDS011;28341;52.064;4.920;2023-09-07T11:24:56;5.63;;;2.90;;
42702;SDS011;28341;52.064;4.920;2023-09-07T11:27:00;4.60;;;3.20;;
42702;SDS011;28341;52.064;4.920;2023-09-07T11:29:04;4.95;;;2.95;;
42702;SDS011;28341;52.064;4.920;2023-09-07T11:31:08;4.60;;;2.97;;
42702;SDS011;28341;52.064;4.920;2023-09-07T11:33:12;4.63;;;2.92;;
42702;SDS011;28341;52.064;4.920;2023-09-07T11:35:19;4.72;;;3.08;;
42702;SDS011;28341;52.064;4.920;2023-09-07T11:37:25;4.15;;;3.40;;
42702;SDS011;28341;52.064;4.920;2023-09-07T11:39:26;4.75;;;3.22;;
42702;SDS011;28341;52.064;4.920;2023-09-07T11:41:30;4.00;;;3.20;;
42702;SDS011;28341;52.064;4.920;2023-09-07T11:43:34;4.82;;;3.10;;
42702;SDS011;28341;52.064;4.920;2023-09-07T11:45:40;6.35;;;3.13;;
42702;SDS011;28341;52.064;4.920;2023-09-07T11:47:45;10.38;;;3.20;;
42702;SDS011;28341;52.064;4.920;2023-09-07T11:49:48;4.75;;;3.05;;
42702;SDS011;28341;52.064;4.920;2023-09-07T11:51:53;4.03;;;3.05;;
42702;SDS011;28341;52.064;4.920;2023-09-07T11:54:01;7.32;;;3.22;;
42702;SDS011;28341;52.064;4.920;2023-09-07T11:56:05;6.35;;;3.20;;
42702;SDS011;28341;52.064;4.920;2023-09-07T11:58:08;4.95;;;2.67;;
42702;SDS011;28341;52.064;4.920;2023-09-07T12:00:13;7.50;;;3.33;;
42702;SDS011;28341;52.064;4.920;2023-09-07T12:02:18;5.53;;;2.85;;
42702;SDS011;28341;52.064;4.920;2023-09-07T12:04:22;6.75;;;3.20;;
42702;SDS011;28341;52.064;4.920;2023-09-07T12:06:25;3.85;;;2.80;;
42702;SDS011;28341;52.064;4.920;2023-09-07T12:08:29;12.70;;;3.28;;
42702;SDS011;28341;52.064;4.920;2023-09-07T12:10:36;5.10;;;3.20;;
42702;SDS011;28341;52.064;4.920;2023-09-07T12:12:40;4.03;;;3.00;;
42702;SDS011;28341;52.064;4.920;2023-09-07T12:14:44;5.45;;;3.33;;
42702;SDS011;28341;52.064;4.920;2023-09-07T12:16:48;6.78;;;3.20;;
42702;SDS011;28341;52.064;4.920;2023-09-07T12:18:51;5.70;;;3.30;;